GOOY/DKR METAR and TAF weather

Enter ICAO airport designator
Station Type Date Time Source
GOOY METAR 2018/12/10 19:00 UTC NOAA

GOOY 101900Z 36008KT CAVOK 25/19 Q1014


Station Type Date Time Source
GOOY Decoded METAR 2018/12/10 19:00 UTC NOAA

Dakar / Yoff, Senegal (GOOY) 14-44N 017-30W 24M
Dec 10, 2018 - 02:00 PM EST / 2018.12.10 1900 UTC
Wind: from the N (360 degrees) at 9 MPH (8 KT):0
Visibility: greater than 7 mile(s):0
Temperature: 77 F (25 C)
Dew Point: 66 F (19 C)
Relative Humidity: 69%
Pressure (altimeter): 29.94 in. Hg (1014 hPa)
ob: GOOY 101900Z 36008KT CAVOK 25/19 Q1014
cycle: 19

Station Type Date Time Source
GOOY TAF 2018/12/10 18:30 UTC NOAA

TAF GOOY 101730Z 1018/1124 01008KT CAVOK


Example: see airport list